createdAt,value
2023-05-05T00:00:42.812Z,33.54
2023-05-05T00:01:42.837Z,33.56
2023-05-05T00:02:42.968Z,33.55
2023-05-05T00:03:42.996Z,33.58
2023-05-05T00:04:42.862Z,33.58
2023-05-05T00:05:42.929Z,33.59
2023-05-05T00:06:42.920Z,33.56
2023-05-05T00:07:42.948Z,33.55
2023-05-05T00:08:43.011Z,33.59
2023-05-05T00:09:43.026Z,33.58
2023-05-05T00:10:43.095Z,33.59
2023-05-05T00:11:43.162Z,33.61
2023-05-05T00:12:43.217Z,33.59
2023-05-05T00:13:43.214Z,33.56
2023-05-05T00:14:43.254Z,33.56
2023-05-05T00:15:43.284Z,33.62
2023-05-05T00:16:43.368Z,33.60
2023-05-05T00:17:43.401Z,33.67
2023-05-05T00:18:43.401Z,33.60
2023-05-05T00:19:43.442Z,33.63
2023-05-05T00:20:43.513Z,33.62
2023-05-05T00:21:43.512Z,33.60
2023-05-05T00:22:43.526Z,33.60
2023-05-05T00:23:43.552Z,33.62
2023-05-05T00:24:43.591Z,33.60
2023-05-05T00:25:43.686Z,33.65
2023-05-05T00:26:43.654Z,33.66
2023-05-05T00:27:43.712Z,33.66
2023-05-05T00:28:43.765Z,33.65
2023-05-05T00:29:43.778Z,33.67
2023-05-05T00:30:43.831Z,33.69
2023-05-05T00:31:43.842Z,33.62
2023-05-05T00:32:43.832Z,33.66
2023-05-05T00:33:43.833Z,33.67
2023-05-05T00:34:43.852Z,33.71
2023-05-05T00:35:43.877Z,33.66
2023-05-05T00:36:43.888Z,33.69
2023-05-05T00:37:43.907Z,33.65
2023-05-05T00:38:43.919Z,33.65
2023-05-05T00:39:43.953Z,33.69
2023-05-05T00:40:43.970Z,33.66
2023-05-05T00:41:44.000Z,33.70
2023-05-05T00:42:43.991Z,33.74
2023-05-05T00:43:43.978Z,33.69
2023-05-05T00:44:44.006Z,33.69
2023-05-05T00:45:44.046Z,33.67
2023-05-05T00:46:44.081Z,33.68
2023-05-05T00:47:44.120Z,33.67
2023-05-05T00:48:44.064Z,33.67
2023-05-05T00:49:44.078Z,33.69
2023-05-05T00:50:44.069Z,33.67
2023-05-05T00:51:44.082Z,33.63
2023-05-05T00:52:44.088Z,33.70
2023-05-05T00:53:44.105Z,33.71
2023-05-05T00:54:44.074Z,33.67
2023-05-05T00:55:44.096Z,33.67
2023-05-05T00:56:44.081Z,33.68
2023-05-05T00:57:44.076Z,33.71
2023-05-05T00:58:44.078Z,33.68
2023-05-05T00:59:44.084Z,33.74
2023-05-05T01:00:44.068Z,33.71
2023-05-05T01:01:44.078Z,33.70
2023-05-05T01:02:44.157Z,33.72
2023-05-05T01:03:44.169Z,33.71
2023-05-05T01:04:44.091Z,33.72
2023-05-05T01:05:44.111Z,33.65
2023-05-05T01:06:44.083Z,33.74
2023-05-05T01:07:44.112Z,33.71
2023-05-05T01:08:44.097Z,33.74
2023-05-05T01:09:44.102Z,33.75
2023-05-05T01:10:44.093Z,33.76
2023-05-05T01:11:44.083Z,33.68
2023-05-05T01:12:44.120Z,33.74
2023-05-05T01:13:44.089Z,33.74
2023-05-05T01:14:44.102Z,33.75
2023-05-05T01:15:44.081Z,33.76
2023-05-05T01:16:44.135Z,33.70
2023-05-05T01:17:44.133Z,33.73
2023-05-05T01:18:44.087Z,33.71
2023-05-05T01:19:44.100Z,33.72
2023-05-05T01:20:44.094Z,33.74
2023-05-05T01:21:44.086Z,33.75
2023-05-05T01:22:44.077Z,33.71
2023-05-05T01:23:44.076Z,33.75
2023-05-05T01:24:44.078Z,33.76
2023-05-05T01:25:44.085Z,33.79
2023-05-05T01:26:44.133Z,33.73
2023-05-05T01:27:44.127Z,33.73
2023-05-05T01:28:44.093Z,33.77
2023-05-05T01:29:44.116Z,33.79
2023-05-05T01:30:44.079Z,33.75
2023-05-05T01:31:44.166Z,33.77
2023-05-05T01:32:44.158Z,33.76
2023-05-05T01:33:44.080Z,33.80
2023-05-05T01:34:44.084Z,33.72
2023-05-05T01:35:44.104Z,33.75
2023-05-05T01:36:44.108Z,33.73
2023-05-05T01:37:44.092Z,33.76
2023-05-05T01:38:44.084Z,33.77
2023-05-05T01:39:44.097Z,33.79
2023-05-05T01:40:44.121Z,33.77
2023-05-05T01:41:44.108Z,33.79
2023-05-05T01:42:44.092Z,33.77
2023-05-05T01:43:44.121Z,33.79
2023-05-05T01:44:44.088Z,33.75
2023-05-05T01:45:44.115Z,33.76
2023-05-05T01:46:44.131Z,33.76
2023-05-05T01:47:44.143Z,33.71
2023-05-05T01:48:44.123Z,33.82
2023-05-05T01:49:44.079Z,33.81
2023-05-05T01:50:44.091Z,33.79
2023-05-05T01:51:44.073Z,33.82
2023-05-05T01:52:44.080Z,33.80
2023-05-05T01:53:44.046Z,33.76
2023-05-05T01:54:44.066Z,33.80
2023-05-05T01:55:44.084Z,33.73
2023-05-05T01:56:44.052Z,33.76
2023-05-05T01:57:44.069Z,33.75
2023-05-05T01:58:44.047Z,33.73
2023-05-05T01:59:44.049Z,33.80
2023-05-05T02:00:44.117Z,33.80
2023-05-05T02:01:44.090Z,33.76
2023-05-05T02:02:44.144Z,33.77
2023-05-05T02:03:44.073Z,33.80
2023-05-05T02:04:44.052Z,33.78
2023-05-05T02:05:44.049Z,33.75
2023-05-05T02:06:44.047Z,33.77
2023-05-05T02:07:44.052Z,33.77
2023-05-05T02:08:44.016Z,33.78
2023-05-05T02:09:44.674Z,33.74
2023-05-05T02:10:44.059Z,33.77
2023-05-05T02:11:44.023Z,33.79
2023-05-05T02:12:44.070Z,33.76
2023-05-05T02:13:44.101Z,33.78
2023-05-05T02:14:44.050Z,33.80
2023-05-05T02:15:44.104Z,33.79
2023-05-05T02:16:44.022Z,33.76
2023-05-05T02:17:44.084Z,33.83
2023-05-05T02:18:44.079Z,33.80
2023-05-05T02:19:44.021Z,33.78
2023-05-05T02:20:44.080Z,33.76
2023-05-05T02:21:44.053Z,33.75
2023-05-05T02:22:44.049Z,33.81
2023-05-05T02:23:44.057Z,33.76
2023-05-05T02:24:44.022Z,33.77
2023-05-05T02:25:44.032Z,33.80
2023-05-05T02:26:44.059Z,33.77
2023-05-05T02:27:44.061Z,33.77
2023-05-05T02:28:44.019Z,33.77
2023-05-05T02:29:44.048Z,33.77
2023-05-05T02:30:44.069Z,33.76
2023-05-05T02:31:44.166Z,33.78
2023-05-05T02:32:44.056Z,33.79
2023-05-05T02:33:44.022Z,33.80
2023-05-05T02:34:44.031Z,33.76
2023-05-05T02:35:44.056Z,33.82
2023-05-05T02:36:44.013Z,33.83
2023-05-05T02:37:44.032Z,33.77
2023-05-05T02:38:44.040Z,33.84
2023-05-05T02:39:44.003Z,33.78
2023-05-05T02:40:44.185Z,33.74
2023-05-05T02:41:43.986Z,33.81
2023-05-05T02:42:44.042Z,33.84
2023-05-05T02:43:43.987Z,33.80
2023-05-05T02:44:43.985Z,33.80
2023-05-05T02:45:44.011Z,33.81
2023-05-05T02:46:44.017Z,33.80
2023-05-05T02:47:43.988Z,33.78
2023-05-05T02:48:43.962Z,33.78
2023-05-05T02:49:43.999Z,33.80
2023-05-05T02:50:44.009Z,33.74
2023-05-05T02:51:43.950Z,33.81
2023-05-05T02:52:43.987Z,33.72
2023-05-05T02:53:43.968Z,33.78
2023-05-05T02:54:43.954Z,33.76
2023-05-05T02:55:43.972Z,33.78
2023-05-05T02:56:43.947Z,33.74
2023-05-05T02:57:44.002Z,33.78
2023-05-05T02:58:43.980Z,33.78
2023-05-05T02:59:43.989Z,33.74
2023-05-05T03:00:43.947Z,33.77
2023-05-05T03:01:43.969Z,33.77
2023-05-05T03:02:44.048Z,33.76
2023-05-05T03:03:44.088Z,33.78
2023-05-05T03:04:43.957Z,33.80
2023-05-05T03:05:43.948Z,33.74
2023-05-05T03:06:43.971Z,33.77
2023-05-05T03:07:43.977Z,33.77
2023-05-05T03:08:43.959Z,33.78
2023-05-05T03:09:43.933Z,33.72
2023-05-05T03:10:43.948Z,33.77
2023-05-05T03:11:43.946Z,33.79
2023-05-05T03:12:43.948Z,33.74
2023-05-05T03:13:43.987Z,33.77
2023-05-05T03:14:43.932Z,33.76
2023-05-05T03:15:43.925Z,33.77
2023-05-05T03:16:44.115Z,33.80
2023-05-05T03:17:44.017Z,33.76
2023-05-05T03:18:43.924Z,33.77
2023-05-05T03:19:43.932Z,33.77
2023-05-05T03:20:43.973Z,33.78
2023-05-05T03:21:43.931Z,33.78
2023-05-05T03:22:43.959Z,33.78
2023-05-05T03:23:43.928Z,33.81
2023-05-05T03:24:43.953Z,33.81
2023-05-05T03:25:43.920Z,33.78
2023-05-05T03:26:43.933Z,33.80
2023-05-05T03:27:43.957Z,33.77
2023-05-05T03:28:43.906Z,33.77
2023-05-05T03:29:43.936Z,33.78
2023-05-05T03:30:43.911Z,33.80
2023-05-05T03:31:44.000Z,33.74
2023-05-05T03:32:43.957Z,33.76
2023-05-05T03:33:43.952Z,33.75
2023-05-05T03:34:43.920Z,33.78
2023-05-05T03:35:43.947Z,33.81
2023-05-05T03:36:43.948Z,33.75
2023-05-05T03:37:43.947Z,33.78
2023-05-05T03:38:43.945Z,33.80
2023-05-05T03:39:43.947Z,33.74
2023-05-05T03:40:44.761Z,33.74
2023-05-05T03:41:43.985Z,33.75
2023-05-05T03:42:43.970Z,33.79
2023-05-05T03:43:43.938Z,33.78
2023-05-05T03:44:43.951Z,33.79
2023-05-05T03:45:43.983Z,33.74
2023-05-05T03:46:43.971Z,33.82
2023-05-05T03:47:44.043Z,33.78
2023-05-05T03:48:43.951Z,33.83
2023-05-05T03:49:43.954Z,33.75
2023-05-05T03:50:43.964Z,33.77
2023-05-05T03:51:44.002Z,33.74
2023-05-05T03:52:44.035Z,33.72
2023-05-05T03:53:44.012Z,33.78
2023-05-05T03:54:44.041Z,33.79
2023-05-05T03:55:44.024Z,33.75
2023-05-05T03:56:44.044Z,33.76
2023-05-05T03:57:44.042Z,33.75
2023-05-05T03:58:44.044Z,33.79
2023-05-05T03:59:44.043Z,33.79
2023-05-05T04:00:44.045Z,33.75
2023-05-05T04:01:44.070Z,33.75
2023-05-05T04:02:44.155Z,33.74
2023-05-05T04:03:44.147Z,33.75
2023-05-05T04:04:44.056Z,33.78
2023-05-05T04:05:44.035Z,33.75
2023-05-05T04:06:44.085Z,33.72
2023-05-05T04:07:44.135Z,33.74
2023-05-05T04:08:44.052Z,33.78
2023-05-05T04:09:44.066Z,33.74
2023-05-05T04:10:44.051Z,33.75
2023-05-05T04:11:44.058Z,33.74
2023-05-05T04:12:44.118Z,33.77
2023-05-05T04:13:44.077Z,33.78
2023-05-05T04:14:44.076Z,33.78
2023-05-05T04:15:44.110Z,33.75
2023-05-05T04:16:44.159Z,33.77
2023-05-05T04:17:44.262Z,33.75
2023-05-05T04:18:44.165Z,33.72
2023-05-05T04:19:44.167Z,33.74
2023-05-05T04:20:44.176Z,33.75
2023-05-05T04:21:44.181Z,33.77
2023-05-05T04:22:44.253Z,33.77
2023-05-05T04:23:44.200Z,33.75
2023-05-05T04:24:44.226Z,33.72
2023-05-05T04:25:44.244Z,33.74
2023-05-05T04:26:44.310Z,33.75
2023-05-05T04:27:44.289Z,33.75
2023-05-05T04:28:44.281Z,33.69
2023-05-05T04:29:44.310Z,33.77
2023-05-05T04:30:44.303Z,33.69
2023-05-05T04:31:44.341Z,33.74
2023-05-05T04:32:44.370Z,33.75
2023-05-05T04:33:44.330Z,33.78
2023-05-05T04:34:44.334Z,33.75
2023-05-05T04:35:44.342Z,33.71
2023-05-05T04:36:44.353Z,33.74
2023-05-05T04:37:44.397Z,33.75
2023-05-05T04:38:44.393Z,33.73
2023-05-05T04:39:44.355Z,33.70
2023-05-05T04:40:44.359Z,33.72
2023-05-05T04:41:44.362Z,33.74
2023-05-05T04:42:44.380Z,33.70
2023-05-05T04:43:44.370Z,33.68
2023-05-05T04:44:44.371Z,33.71
2023-05-05T04:45:44.378Z,33.75
2023-05-05T04:46:44.393Z,33.71
2023-05-05T04:47:44.388Z,33.69
2023-05-05T04:48:44.361Z,33.67
2023-05-05T04:49:44.363Z,33.67
2023-05-05T04:50:44.359Z,33.70
2023-05-05T04:51:44.343Z,33.70
2023-05-05T04:52:44.341Z,33.66
2023-05-05T04:53:44.339Z,33.70
2023-05-05T04:54:44.367Z,33.63
2023-05-05T04:55:44.369Z,33.66
2023-05-05T04:56:44.407Z,33.65
2023-05-05T04:57:44.394Z,33.63
2023-05-05T04:58:44.406Z,33.64
2023-05-05T04:59:44.441Z,33.64
2023-05-05T05:00:44.431Z,33.66
2023-05-05T05:01:44.440Z,33.64
2023-05-05T05:02:44.517Z,33.64
2023-05-05T05:03:44.514Z,33.59
2023-05-05T05:04:44.429Z,33.56
2023-05-05T05:05:44.443Z,33.62
2023-05-05T05:06:44.432Z,33.59
2023-05-05T05:07:44.449Z,33.64
2023-05-05T05:08:44.450Z,33.64
2023-05-05T05:09:44.430Z,33.61
2023-05-05T05:10:44.444Z,33.59
2023-05-05T05:11:44.467Z,33.58
2023-05-05T05:12:44.546Z,33.59
2023-05-05T05:13:44.498Z,33.58
2023-05-05T05:14:44.520Z,33.62
2023-05-05T05:15:44.496Z,33.55
2023-05-05T05:16:44.556Z,33.61
2023-05-05T05:17:44.544Z,33.55
2023-05-05T05:18:44.516Z,33.56
2023-05-05T05:19:44.566Z,33.56
2023-05-05T05:20:44.560Z,33.65
2023-05-05T05:21:44.552Z,33.61
2023-05-05T05:22:44.562Z,33.64
2023-05-05T05:23:44.559Z,33.59
2023-05-05T05:24:44.654Z,33.59
2023-05-05T05:25:44.580Z,33.61
2023-05-05T05:26:44.556Z,33.56
2023-05-05T05:27:45.538Z,33.62
2023-05-05T05:28:44.557Z,33.59
2023-05-05T05:29:44.541Z,33.56
2023-05-05T05:30:44.546Z,33.58
2023-05-05T05:31:44.639Z,33.51
2023-05-05T05:32:44.565Z,33.58
2023-05-05T05:33:44.511Z,33.55
2023-05-05T05:34:44.499Z,33.61
2023-05-05T05:35:44.560Z,33.90
2023-05-05T05:36:44.602Z,34.28
2023-05-05T05:37:44.475Z,34.18
2023-05-05T05:38:44.596Z,34.15
2023-05-05T05:39:44.515Z,34.33
2023-05-05T05:40:44.459Z,35.18
2023-05-05T05:41:44.482Z,34.77
2023-05-05T05:42:44.449Z,35.51
2023-05-05T05:43:44.447Z,34.94
2023-05-05T05:44:44.449Z,35.12
2023-05-05T05:45:44.519Z,35.61
2023-05-05T05:46:44.473Z,35.46
2023-05-05T05:47:44.491Z,35.39
2023-05-05T05:48:44.412Z,35.27
2023-05-05T05:49:44.403Z,35.22
2023-05-05T05:50:44.408Z,34.89
2023-05-05T05:51:44.377Z,34.99
2023-05-05T05:52:44.367Z,35.00
2023-05-05T05:53:44.375Z,34.95
2023-05-05T05:54:44.386Z,35.02
2023-05-05T05:55:44.361Z,34.94
2023-05-05T05:56:44.357Z,35.22
2023-05-05T05:57:44.342Z,35.23
2023-05-05T05:58:44.344Z,35.04
2023-05-05T05:59:44.329Z,35.15
2023-05-05T06:00:44.329Z,35.13
2023-05-05T06:01:44.352Z,35.11
2023-05-05T06:02:44.361Z,35.06
2023-05-05T06:03:44.361Z,35.04
2023-05-05T06:04:44.316Z,35.08
2023-05-05T06:05:44.288Z,35.13
2023-05-05T06:06:44.721Z,35.13
2023-05-05T06:07:44.325Z,35.17
2023-05-05T06:08:44.731Z,35.12
2023-05-05T06:09:44.349Z,35.09
2023-05-05T06:10:44.381Z,35.21
2023-05-05T06:11:44.467Z,35.14
2023-05-05T06:12:44.512Z,35.11
2023-05-05T06:13:44.534Z,35.16
2023-05-05T06:14:44.556Z,35.14
2023-05-05T06:15:44.639Z,35.18
2023-05-05T06:16:44.746Z,35.10
2023-05-05T06:17:44.754Z,35.16
2023-05-05T06:18:44.790Z,35.17
2023-05-05T06:19:44.818Z,35.14
2023-05-05T06:20:44.833Z,35.10
2023-05-05T06:21:44.854Z,35.07
2023-05-05T06:22:44.909Z,35.10
2023-05-05T06:23:44.892Z,35.14
2023-05-05T06:24:44.935Z,35.09
2023-05-05T06:25:44.928Z,35.11
2023-05-05T06:26:44.964Z,35.07
2023-05-05T06:27:45.744Z,35.07
2023-05-05T06:28:45.275Z,35.06
2023-05-05T06:29:45.148Z,35.05
2023-05-05T06:30:45.130Z,35.09
2023-05-05T06:31:45.207Z,35.05
2023-05-05T06:32:45.282Z,35.03
2023-05-05T06:33:45.221Z,35.02
2023-05-05T06:34:45.266Z,35.02
2023-05-05T06:35:46.241Z,35.06
2023-05-05T06:36:45.369Z,35.01
2023-05-05T06:37:45.436Z,35.23
2023-05-05T06:38:45.740Z,36.61
2023-05-05T06:39:45.499Z,36.69
2023-05-05T06:40:45.592Z,36.41
2023-05-05T06:41:45.629Z,37.19
2023-05-05T06:42:45.648Z,37.12
2023-05-05T06:43:45.699Z,36.68
2023-05-05T06:44:45.762Z,36.98
2023-05-05T06:45:45.784Z,36.95
2023-05-05T06:46:45.866Z,36.82
2023-05-05T06:47:45.848Z,36.62
2023-05-05T06:48:45.858Z,36.78
2023-05-05T06:49:45.921Z,36.23
2023-05-05T06:50:45.856Z,35.79
2023-05-05T06:51:45.922Z,36.24
2023-05-05T06:52:45.890Z,35.69
2023-05-05T06:53:45.873Z,35.51
2023-05-05T06:54:45.867Z,35.78
2023-05-05T06:55:45.897Z,36.38
2023-05-05T06:56:45.925Z,35.90
2023-05-05T06:57:45.917Z,35.26
2023-05-05T06:58:45.957Z,33.93
2023-05-05T06:59:45.952Z,32.88
2023-05-05T07:00:46.005Z,32.92
2023-05-05T07:01:46.005Z,32.51
2023-05-05T07:02:46.047Z,33.66
2023-05-05T07:03:46.093Z,34.02
2023-05-05T07:04:46.048Z,34.08
2023-05-05T07:05:46.072Z,34.47
2023-05-05T07:06:46.092Z,34.51
2023-05-05T07:07:46.235Z,34.41
2023-05-05T07:08:46.211Z,34.74
2023-05-05T07:09:46.274Z,35.17
2023-05-05T07:10:46.344Z,34.86
2023-05-05T07:11:46.469Z,34.80
2023-05-05T07:12:46.444Z,34.92
2023-05-05T07:13:46.549Z,35.10
2023-05-05T07:14:46.570Z,35.09
2023-05-05T07:15:46.729Z,35.22
2023-05-05T07:16:46.704Z,35.08
2023-05-05T07:17:46.713Z,35.31
2023-05-05T07:18:46.720Z,35.64
2023-05-05T07:19:46.763Z,35.44
2023-05-05T07:20:46.825Z,35.44
2023-05-05T07:21:46.860Z,35.31
2023-05-05T07:22:46.894Z,35.12
2023-05-05T07:23:47.035Z,35.40
2023-05-05T07:24:47.344Z,33.11
2023-05-05T07:25:47.017Z,33.46
2023-05-05T07:26:47.062Z,33.72
2023-05-05T07:27:47.115Z,34.54
2023-05-05T07:28:47.307Z,34.54
2023-05-05T07:29:47.208Z,34.59
2023-05-05T07:30:47.217Z,34.65
2023-05-05T07:31:47.304Z,34.94
2023-05-05T07:32:47.288Z,34.66
2023-05-05T07:33:47.842Z,32.80
2023-05-05T07:34:47.340Z,32.42
2023-05-05T07:35:47.361Z,31.74
2023-05-05T07:36:47.389Z,31.79
2023-05-05T07:37:47.621Z,31.81
2023-05-05T07:38:47.506Z,32.19
2023-05-05T07:39:47.645Z,31.48
2023-05-05T07:40:47.553Z,31.12
2023-05-05T07:41:47.615Z,31.00
2023-05-05T07:42:47.639Z,30.70
2023-05-05T07:43:47.768Z,30.56
2023-05-05T07:44:47.770Z,30.75
2023-05-05T07:45:47.867Z,30.90
2023-05-05T07:46:47.951Z,30.71
2023-05-05T07:47:48.014Z,30.88
2023-05-05T07:48:47.956Z,30.67
2023-05-05T07:49:47.947Z,30.60
2023-05-05T07:50:48.031Z,30.50
2023-05-05T07:51:48.067Z,30.48
2023-05-05T07:52:51.786Z,30.54
2023-05-05T07:53:49.074Z,30.31
2023-05-05T07:54:48.067Z,30.10
2023-05-05T07:55:48.034Z,30.20
2023-05-05T07:56:48.168Z,30.23
2023-05-05T07:57:48.019Z,30.26
2023-05-05T07:58:48.027Z,30.27
2023-05-05T07:59:48.012Z,30.34
2023-05-05T08:00:48.053Z,30.27
2023-05-05T08:01:48.338Z,30.22
2023-05-05T08:02:48.163Z,30.13
2023-05-05T08:03:48.101Z,30.13
2023-05-05T08:04:48.023Z,29.94
2023-05-05T08:05:49.409Z,29.95
2023-05-05T08:06:47.961Z,29.89
2023-05-05T08:07:47.994Z,29.95
2023-05-05T08:08:48.033Z,30.14
2023-05-05T08:09:47.939Z,30.41
2023-05-05T08:10:47.938Z,30.55
2023-05-05T08:11:48.078Z,30.90
2023-05-05T08:12:48.022Z,30.92
2023-05-05T08:13:47.896Z,31.16
2023-05-05T08:14:47.905Z,31.17
2023-05-05T08:15:47.971Z,31.19
2023-05-05T08:16:48.788Z,31.60
2023-05-05T08:17:48.324Z,31.43
2023-05-05T08:18:47.869Z,31.56
2023-05-05T08:19:47.873Z,31.85
2023-05-05T08:20:47.844Z,31.97
2023-05-05T08:21:47.871Z,32.13
2023-05-05T08:22:48.008Z,30.91
2023-05-05T08:23:47.857Z,31.42
2023-05-05T08:24:47.888Z,31.54
2023-05-05T08:25:47.886Z,31.45
2023-05-05T08:26:47.815Z,31.25
2023-05-05T08:27:47.983Z,31.48
2023-05-05T08:28:47.809Z,31.41
2023-05-05T08:29:47.824Z,31.42
2023-05-05T08:30:47.788Z,31.46
2023-05-05T08:31:47.865Z,31.46
2023-05-05T08:32:47.842Z,31.49
2023-05-05T08:33:47.781Z,31.57
2023-05-05T08:34:47.915Z,31.59
2023-05-05T08:35:47.772Z,31.61
2023-05-05T08:36:47.769Z,31.67
2023-05-05T08:37:47.875Z,31.72
2023-05-05T08:38:47.729Z,31.73
2023-05-05T08:39:47.725Z,31.74
2023-05-05T08:40:47.744Z,31.80
2023-05-05T08:41:47.780Z,31.92
2023-05-05T08:42:47.920Z,32.81
2023-05-05T08:43:47.894Z,32.99
2023-05-05T08:44:48.316Z,33.30
2023-05-05T08:45:47.936Z,33.21
2023-05-05T08:46:48.061Z,33.16
2023-05-05T08:47:48.123Z,33.38
2023-05-05T08:48:48.043Z,33.60
2023-05-05T08:49:48.083Z,33.58
2023-05-05T08:50:48.114Z,34.22
2023-05-05T08:51:48.107Z,33.98
2023-05-05T08:52:49.929Z,34.00
2023-05-05T08:53:48.117Z,34.18
2023-05-05T08:54:48.126Z,34.43
2023-05-05T08:55:48.120Z,34.85
2023-05-05T08:56:48.102Z,34.94
2023-05-05T08:57:48.127Z,34.74
2023-05-05T08:58:48.106Z,34.95
2023-05-05T08:59:48.246Z,34.87
2023-05-05T09:00:48.100Z,34.90
2023-05-05T09:01:48.062Z,35.00
2023-05-05T09:02:48.454Z,35.03
2023-05-05T09:03:48.063Z,35.26
2023-05-05T09:04:48.099Z,35.46
2023-05-05T09:05:48.047Z,35.74
2023-05-05T09:06:48.048Z,35.61
2023-05-05T09:07:48.034Z,35.07
2023-05-05T09:08:48.009Z,35.17
2023-05-05T09:09:48.002Z,35.29
2023-05-05T09:10:48.019Z,34.76
2023-05-05T09:11:47.982Z,33.62
2023-05-05T09:12:48.034Z,34.55
2023-05-05T09:13:48.019Z,34.76
2023-05-05T09:14:47.996Z,35.25
2023-05-05T09:15:47.969Z,35.44
2023-05-05T09:16:47.975Z,35.52
2023-05-05T09:17:48.013Z,35.96
2023-05-05T09:18:47.985Z,35.45
2023-05-05T09:19:47.930Z,35.12
2023-05-05T09:20:47.957Z,35.66
2023-05-05T09:21:47.930Z,35.83
2023-05-05T09:22:47.910Z,35.74
2023-05-05T09:23:47.919Z,35.88
2023-05-05T09:24:47.920Z,35.93
2023-05-05T09:25:47.913Z,35.73
2023-05-05T09:26:47.904Z,35.74
2023-05-05T09:27:47.913Z,35.89
2023-05-05T09:28:47.935Z,35.31
2023-05-05T09:29:47.867Z,33.64
2023-05-05T09:30:47.921Z,33.24
2023-05-05T09:31:47.939Z,32.19
2023-05-05T09:32:47.901Z,34.32
2023-05-05T09:33:47.955Z,34.37
2023-05-05T09:34:47.906Z,34.29
2023-05-05T09:35:47.821Z,34.34
2023-05-05T09:36:48.000Z,34.77
2023-05-05T09:37:47.913Z,34.78
2023-05-05T09:38:47.824Z,34.92
2023-05-05T09:39:47.868Z,34.70
2023-05-05T09:40:47.778Z,34.62
2023-05-05T09:41:47.818Z,34.51
2023-05-05T09:42:47.799Z,34.42
2023-05-05T09:43:47.801Z,34.36
2023-05-05T09:44:49.829Z,34.18
2023-05-05T09:45:47.902Z,34.10
2023-05-05T09:46:48.904Z,34.09
2023-05-05T09:47:48.138Z,34.10
2023-05-05T09:48:48.005Z,34.15
2023-05-05T09:49:48.003Z,34.19
2023-05-05T09:50:48.007Z,33.94
2023-05-05T09:51:48.066Z,33.89
2023-05-05T09:52:48.791Z,34.09
2023-05-05T09:53:47.975Z,34.11
2023-05-05T09:54:48.044Z,34.19
2023-05-05T09:55:47.989Z,34.08
2023-05-05T09:56:48.036Z,33.64
2023-05-05T09:57:48.027Z,33.76
2023-05-05T09:58:48.035Z,33.77
2023-05-05T09:59:48.007Z,33.51
2023-05-05T10:00:48.037Z,33.42
2023-05-05T10:01:48.038Z,33.50
2023-05-05T10:02:48.035Z,33.34
2023-05-05T10:03:48.029Z,33.54
2023-05-05T10:04:48.103Z,33.59
2023-05-05T10:05:48.051Z,33.53
2023-05-05T10:06:48.040Z,33.58
2023-05-05T10:07:48.075Z,33.32
2023-05-05T10:08:48.020Z,33.40
2023-05-05T10:09:48.091Z,33.13
2023-05-05T10:10:47.999Z,33.23
2023-05-05T10:11:48.006Z,33.00
2023-05-05T10:12:48.039Z,33.01
2023-05-05T10:13:48.007Z,32.86
2023-05-05T10:14:48.032Z,32.67
2023-05-05T10:15:48.131Z,32.95
2023-05-05T10:16:48.012Z,33.21
2023-05-05T10:18:05.108Z,33.40
2023-05-05T10:18:49.006Z,33.47
2023-05-05T10:19:48.075Z,33.75
2023-05-05T10:20:48.000Z,33.25
2023-05-05T10:21:47.983Z,33.74
2023-05-05T10:22:47.992Z,33.24
2023-05-05T10:23:48.145Z,33.23
2023-05-05T10:24:47.973Z,33.40
2023-05-05T10:25:48.002Z,33.93
2023-05-05T10:26:48.050Z,33.61
2023-05-05T10:27:48.329Z,32.21
2023-05-05T10:28:48.185Z,32.91
2023-05-05T10:29:48.199Z,32.37
2023-05-05T10:30:48.261Z,32.20
2023-05-05T10:31:48.304Z,32.16
2023-05-05T10:32:59.357Z,31.73
2023-05-05T10:33:49.389Z,31.77
2023-05-05T10:34:48.336Z,31.97
2023-05-05T10:35:48.521Z,32.03
2023-05-05T10:36:48.395Z,31.22
2023-05-05T10:37:48.495Z,31.18
2023-05-05T10:38:48.414Z,31.56
2023-05-05T10:39:48.457Z,31.79
2023-05-05T10:40:48.489Z,32.00
2023-05-05T10:41:48.538Z,29.90
2023-05-05T10:42:48.868Z,30.43
2023-05-05T10:43:48.599Z,30.85
2023-05-05T10:44:48.874Z,31.38
2023-05-05T10:45:48.746Z,31.38
2023-05-05T10:46:48.723Z,31.26
2023-05-05T10:47:48.850Z,31.85
2023-05-05T10:48:48.849Z,32.36
2023-05-05T10:49:49.382Z,30.75
2023-05-05T10:50:48.873Z,31.43
2023-05-05T10:51:48.887Z,31.19
2023-05-05T10:52:48.947Z,31.55
2023-05-05T10:53:49.048Z,31.81
2023-05-05T10:54:49.044Z,32.35
2023-05-05T10:55:49.051Z,30.83
2023-05-05T10:56:49.182Z,28.92
2023-05-05T10:57:49.200Z,29.29
2023-05-05T10:58:59.806Z,28.71
2023-05-05T10:59:50.283Z,29.25
2023-05-05T11:00:49.212Z,29.26
2023-05-05T11:01:49.176Z,29.10
2023-05-05T11:02:49.200Z,29.32
2023-05-05T11:03:49.236Z,28.01
2023-05-05T11:04:49.177Z,28.17
2023-05-05T11:05:49.161Z,28.38
2023-05-05T11:06:49.821Z,29.07
2023-05-05T11:07:49.147Z,28.82
2023-05-05T11:08:49.140Z,29.23
2023-05-05T11:09:49.171Z,29.60
2023-05-05T11:10:49.327Z,29.75
2023-05-05T11:11:49.168Z,28.95
2023-05-05T11:12:49.192Z,28.91
2023-05-05T11:13:49.221Z,28.94
2023-05-05T11:14:49.292Z,28.96
2023-05-05T11:15:49.307Z,29.25
2023-05-05T11:16:49.270Z,29.64
2023-05-05T11:17:49.309Z,29.82
2023-05-05T11:18:49.291Z,29.99
2023-05-05T11:19:49.290Z,30.20
2023-05-05T11:20:49.298Z,30.28
2023-05-05T11:21:49.335Z,30.14
2023-05-05T11:22:49.354Z,30.11
2023-05-05T11:23:49.913Z,30.10
2023-05-05T11:24:49.416Z,30.13
2023-05-05T11:25:49.439Z,30.17
2023-05-05T11:26:49.517Z,30.17
2023-05-05T11:27:49.541Z,30.18
2023-05-05T11:28:49.561Z,30.28
2023-05-05T11:29:51.509Z,30.24
2023-05-05T11:30:49.677Z,30.32
2023-05-05T11:31:49.716Z,30.35
2023-05-05T11:32:49.849Z,30.35
2023-05-05T11:33:49.838Z,30.39
2023-05-05T11:34:49.871Z,30.52
2023-05-05T11:35:49.913Z,30.46
2023-05-05T11:36:50.012Z,30.55
2023-05-05T11:37:50.045Z,30.53
2023-05-05T11:38:50.146Z,30.60
2023-05-05T11:39:50.173Z,30.66
2023-05-05T11:40:50.225Z,30.79
2023-05-05T11:41:50.361Z,30.82
2023-05-05T11:42:50.353Z,30.84
2023-05-05T11:43:50.418Z,30.87
2023-05-05T11:44:50.446Z,30.93
2023-05-05T11:45:50.540Z,30.93
2023-05-05T11:46:50.500Z,30.94
2023-05-05T11:47:50.563Z,31.03
2023-05-05T11:48:50.858Z,31.01
2023-05-05T11:49:50.564Z,30.94
2023-05-05T11:50:50.549Z,31.10
2023-05-05T11:51:50.569Z,31.13
2023-05-05T11:52:50.572Z,31.14
2023-05-05T11:53:50.587Z,31.08
2023-05-05T11:54:50.681Z,31.08
2023-05-05T11:55:50.789Z,31.14
2023-05-05T11:56:50.623Z,31.14
2023-05-05T11:57:50.633Z,31.20
2023-05-05T11:58:50.720Z,31.27
2023-05-05T11:59:50.683Z,31.24
2023-05-05T12:00:50.671Z,31.34
2023-05-05T12:01:50.658Z,31.34
2023-05-05T12:02:50.701Z,31.31
2023-05-05T12:03:50.824Z,31.31
2023-05-05T12:04:50.765Z,31.31
2023-05-05T12:05:50.656Z,31.29
2023-05-05T12:06:50.646Z,31.39
2023-05-05T12:07:50.674Z,31.50
2023-05-05T12:08:50.667Z,31.42
2023-05-05T12:09:50.696Z,31.44
2023-05-05T12:10:50.649Z,31.47
2023-05-05T12:11:50.667Z,31.47
2023-05-05T12:12:51.290Z,31.48
2023-05-05T12:13:50.679Z,31.45
2023-05-05T12:14:50.664Z,31.45
2023-05-05T12:15:50.668Z,31.51
2023-05-05T12:16:50.686Z,31.51
2023-05-05T12:17:50.758Z,31.48
2023-05-05T12:18:50.680Z,31.46
2023-05-05T12:19:50.648Z,31.52
2023-05-05T12:20:50.719Z,31.46
2023-05-05T12:21:50.667Z,31.52
2023-05-05T12:22:50.640Z,31.56
2023-05-05T12:23:50.639Z,31.58
2023-05-05T12:24:51.901Z,31.68
2023-05-05T12:25:50.723Z,31.67
2023-05-05T12:26:50.683Z,31.70
2023-05-05T12:27:50.720Z,31.67
2023-05-05T12:28:50.700Z,31.62
2023-05-05T12:29:50.701Z,31.70
2023-05-05T12:30:51.649Z,31.70
2023-05-05T12:31:50.760Z,31.75
2023-05-05T12:32:50.744Z,31.62
2023-05-05T12:33:50.714Z,31.64
2023-05-05T12:34:50.703Z,31.72
2023-05-05T12:35:50.717Z,31.68
2023-05-05T12:36:50.785Z,31.71
2023-05-05T12:37:50.765Z,31.60
2023-05-05T12:38:50.747Z,31.65
2023-05-05T12:39:50.786Z,31.56
2023-05-05T12:40:50.742Z,31.59
2023-05-05T12:41:50.736Z,31.62
2023-05-05T12:42:50.756Z,31.53
2023-05-05T12:43:50.771Z,31.49
2023-05-05T12:44:50.755Z,31.55
2023-05-05T12:45:50.760Z,31.60
2023-05-05T12:46:50.755Z,31.54
2023-05-05T12:47:50.804Z,31.63
2023-05-05T12:48:50.756Z,31.40
2023-05-05T12:49:50.754Z,31.37
2023-05-05T12:50:50.766Z,31.37
2023-05-05T12:51:50.750Z,31.53
2023-05-05T12:52:50.783Z,31.50